createdAt,value
2023-04-18T00:01:52.087Z,7.53
2023-04-18T00:04:19.249Z,7.50
2023-04-18T00:06:47.466Z,8.23
2023-04-18T00:09:14.344Z,7.80
2023-04-18T00:11:41.489Z,7.10
2023-04-18T00:14:08.765Z,7.63
2023-04-18T00:16:36.443Z,7.77
2023-04-18T00:19:04.966Z,7.80
2023-04-18T00:21:32.264Z,7.67
2023-04-18T00:23:58.978Z,7.80
2023-04-18T00:26:26.545Z,7.33
2023-04-18T00:28:53.245Z,7.60
2023-04-18T00:31:20.052Z,7.73
2023-04-18T00:33:46.863Z,7.50
2023-04-18T00:36:13.663Z,7.93
2023-04-18T00:38:40.432Z,8.20
2023-04-18T00:41:07.160Z,8.37
2023-04-18T00:43:35.286Z,8.40
2023-04-18T00:46:02.158Z,7.93
2023-04-18T00:48:31.434Z,8.13
2023-04-18T00:50:58.371Z,8.50
2023-04-18T00:53:25.457Z,8.03
2023-04-18T00:55:55.214Z,7.30
2023-04-18T00:58:22.154Z,8.20
2023-04-18T01:00:48.884Z,7.63
2023-04-18T01:03:18.573Z,7.67
2023-04-18T01:05:45.816Z,7.87
2023-04-18T01:08:13.052Z,7.70
2023-04-18T01:10:39.986Z,8.07
2023-04-18T01:13:17.266Z,7.67
2023-04-18T01:15:45.554Z,7.73
2023-04-18T01:18:13.499Z,7.83
2023-04-18T01:20:44.070Z,8.33
2023-04-18T01:23:10.972Z,9.07
2023-04-18T01:25:38.289Z,8.57
2023-04-18T01:28:06.654Z,8.07
2023-04-18T01:30:34.516Z,7.90
2023-04-18T01:33:02.363Z,7.47
2023-04-18T01:35:29.273Z,8.13
2023-04-18T01:37:56.136Z,7.87
2023-04-18T01:40:23.275Z,8.57
2023-04-18T01:42:50.704Z,8.20
2023-04-18T01:45:18.861Z,7.83
2023-04-18T01:47:46.058Z,8.87
2023-04-18T01:50:13.684Z,9.33
2023-04-18T01:52:40.509Z,8.63
2023-04-18T01:55:07.646Z,8.63
2023-04-18T01:57:36.899Z,9.07
2023-04-18T02:00:08.262Z,9.23
2023-04-18T02:02:35.213Z,8.50
2023-04-18T02:05:02.154Z,9.70
2023-04-18T02:07:30.189Z,9.63
2023-04-18T02:09:56.918Z,9.40
2023-04-18T02:12:23.718Z,9.47
2023-04-18T02:14:54.138Z,10.20
2023-04-18T02:17:23.698Z,9.93
2023-04-18T02:19:53.654Z,9.90
2023-04-18T02:22:20.426Z,10.03
2023-04-18T02:24:47.194Z,9.97
2023-04-18T02:27:13.987Z,10.37
2023-04-18T02:29:40.813Z,10.53
2023-04-18T02:32:07.680Z,9.80
2023-04-18T02:34:34.753Z,9.67
2023-04-18T02:37:01.530Z,9.73
2023-04-18T02:39:28.326Z,10.50
2023-04-18T02:41:55.167Z,10.23
2023-04-18T02:44:21.887Z,9.77
2023-04-18T02:46:48.587Z,10.97
2023-04-18T02:49:15.379Z,10.27
2023-04-18T02:51:42.173Z,11.40
2023-04-18T02:54:08.924Z,11.03
2023-04-18T02:56:40.110Z,11.27
2023-04-18T02:59:07.422Z,11.23
2023-04-18T03:01:34.553Z,11.03
2023-04-18T03:04:01.477Z,10.77
2023-04-18T03:06:28.311Z,10.77
2023-04-18T03:08:55.872Z,11.13
2023-04-18T03:11:22.962Z,11.10
2023-04-18T03:13:49.683Z,11.57
2023-04-18T03:16:17.011Z,11.33
2023-04-18T03:18:44.007Z,10.80
2023-04-18T03:21:11.579Z,11.53
2023-04-18T03:23:38.503Z,11.23
2023-04-18T03:26:09.234Z,11.77
2023-04-18T03:28:35.996Z,11.50
2023-04-18T03:31:02.812Z,10.87
2023-04-18T03:33:29.578Z,12.90
2023-04-18T03:35:56.416Z,11.73
2023-04-18T03:38:23.309Z,11.87
2023-04-18T03:40:50.141Z,12.70
2023-04-18T03:43:16.935Z,12.03
2023-04-18T03:45:44.444Z,11.73
2023-04-18T03:48:11.727Z,12.03
2023-04-18T03:50:38.477Z,12.33
2023-04-18T03:53:05.205Z,13.03
2023-04-18T03:55:32.097Z,13.03
2023-04-18T03:57:59.409Z,13.27
2023-04-18T04:00:27.013Z,11.90
2023-04-18T04:02:53.987Z,12.53
2023-04-18T04:05:20.912Z,12.63
2023-04-18T04:07:47.866Z,13.27
2023-04-18T04:10:14.710Z,11.67
2023-04-18T04:12:41.465Z,11.80
2023-04-18T04:15:08.879Z,12.33
2023-04-18T04:17:35.676Z,12.23
2023-04-18T04:20:02.742Z,11.80
2023-04-18T04:22:29.465Z,11.73
2023-04-18T04:24:57.918Z,11.63
2023-04-18T04:27:25.298Z,12.87
2023-04-18T04:29:54.933Z,11.90
2023-04-18T04:32:21.885Z,12.30
2023-04-18T04:34:49.631Z,12.47
2023-04-18T04:37:18.895Z,12.70
2023-04-18T04:39:46.333Z,11.37
2023-04-18T04:42:13.622Z,12.30
2023-04-18T04:44:41.853Z,11.83
2023-04-18T04:47:08.653Z,12.00
2023-04-18T04:49:35.460Z,12.17
2023-04-18T04:52:03.154Z,13.10
2023-04-18T04:54:30.290Z,12.83
2023-04-18T04:56:57.020Z,13.17
2023-04-18T04:59:23.881Z,14.77
2023-04-18T05:01:50.756Z,13.77
2023-04-18T05:04:18.554Z,12.67
2023-04-18T05:06:46.355Z,11.77
2023-04-18T05:09:13.672Z,13.17
2023-04-18T05:11:40.550Z,13.10
2023-04-18T05:14:07.611Z,13.07
2023-04-18T05:16:34.448Z,13.17
2023-04-18T05:19:01.373Z,12.03
2023-04-18T05:21:29.146Z,11.93
2023-04-18T05:23:58.412Z,13.00
2023-04-18T05:26:25.278Z,11.73
2023-04-18T05:28:52.103Z,12.77
2023-04-18T05:31:19.038Z,11.47
2023-04-18T05:33:45.809Z,12.20
2023-04-18T05:36:12.703Z,12.53
2023-04-18T05:38:39.411Z,12.23
2023-04-18T05:41:06.242Z,13.27
2023-04-18T05:43:33.002Z,11.67
2023-04-18T05:45:59.801Z,12.57
2023-04-18T05:48:27.714Z,12.00
2023-04-18T05:50:54.567Z,12.80
2023-04-18T05:53:21.535Z,12.60
2023-04-18T05:55:49.091Z,12.67
2023-04-18T05:58:16.288Z,12.43
2023-04-18T06:00:43.497Z,12.83
2023-04-18T06:03:11.297Z,11.90
2023-04-18T06:05:38.634Z,12.73
2023-04-18T06:08:05.475Z,13.00
2023-04-18T06:10:32.218Z,12.50
2023-04-18T06:12:59.104Z,13.17
2023-04-18T06:15:25.999Z,12.03
2023-04-18T06:17:52.812Z,12.13
2023-04-18T06:20:19.936Z,11.67
2023-04-18T06:22:46.752Z,11.60
2023-04-18T06:25:13.671Z,13.10
2023-04-18T06:27:40.705Z,11.80
2023-04-18T06:30:08.572Z,12.53
2023-04-18T06:32:35.786Z,11.37
2023-04-18T06:35:02.660Z,11.47
2023-04-18T06:37:29.636Z,12.90
2023-04-18T06:39:56.363Z,12.47
2023-04-18T06:42:23.104Z,13.10
2023-04-18T06:44:50.299Z,12.37
2023-04-18T06:47:17.371Z,12.13
2023-04-18T06:49:44.086Z,11.33
2023-04-18T06:52:10.904Z,12.03
2023-04-18T06:54:37.614Z,10.83
2023-04-18T06:57:04.622Z,9.43
2023-04-18T06:59:31.427Z,10.50
2023-04-18T07:01:58.311Z,10.77
2023-04-18T07:04:25.340Z,7.57
2023-04-18T07:06:52.433Z,10.50
2023-04-18T07:09:19.591Z,10.87
2023-04-18T07:11:46.467Z,10.80
2023-04-18T07:14:13.464Z,11.83
2023-04-18T07:16:40.548Z,10.53
2023-04-18T07:19:07.396Z,9.37
2023-04-18T07:21:34.311Z,10.23
2023-04-18T07:24:01.049Z,9.17
2023-04-18T07:26:27.829Z,9.37
2023-04-18T07:28:54.775Z,9.23
2023-04-18T07:31:21.498Z,8.97
2023-04-18T07:33:48.285Z,8.50
2023-04-18T07:36:15.056Z,8.00
2023-04-18T07:38:41.980Z,8.20
2023-04-18T07:41:08.731Z,8.57
2023-04-18T07:43:35.607Z,9.33
2023-04-18T07:46:02.569Z,9.57
2023-04-18T07:48:29.317Z,8.37
2023-04-18T07:50:56.288Z,8.90
2023-04-18T07:53:23.074Z,8.10
2023-04-18T07:55:50.416Z,8.27
2023-04-18T07:58:17.718Z,8.87
2023-04-18T08:00:45.138Z,8.23
2023-04-18T08:03:13.031Z,7.30
2023-04-18T08:05:41.357Z,7.97
2023-04-18T08:08:10.198Z,8.17
2023-04-18T08:10:37.472Z,7.83
2023-04-18T08:13:04.255Z,8.57
2023-04-18T08:15:32.989Z,8.83
2023-04-18T08:18:01.141Z,6.10
2023-04-18T08:20:29.586Z,8.23
2023-04-18T08:23:07.546Z,8.70
2023-04-18T08:26:11.122Z,8.37
2023-04-18T08:28:37.829Z,8.97
2023-04-18T08:31:04.758Z,8.93
2023-04-18T08:33:31.571Z,8.27
2023-04-18T08:35:58.338Z,8.93
2023-04-18T08:38:25.144Z,8.47
2023-04-18T08:40:51.972Z,7.70
2023-04-18T08:43:18.745Z,7.40
2023-04-18T08:45:46.234Z,8.60
2023-04-18T08:48:14.634Z,7.97
2023-04-18T08:50:42.560Z,7.53
2023-04-18T08:53:10.131Z,7.90
2023-04-18T08:55:37.677Z,8.20
2023-04-18T08:58:08.179Z,6.80
2023-04-18T09:00:35.411Z,8.03
2023-04-18T09:03:04.075Z,7.43
2023-04-18T09:05:31.061Z,8.07
2023-04-18T09:07:57.854Z,7.27
2023-04-18T09:10:29.096Z,7.63
2023-04-18T09:12:57.720Z,8.17
2023-04-18T09:15:29.418Z,8.03
2023-04-18T09:17:58.936Z,8.30
2023-04-18T09:20:38.065Z,8.03
2023-04-18T09:23:11.062Z,8.57
2023-04-18T09:25:49.318Z,9.17
2023-04-18T09:28:29.099Z,9.23
2023-04-18T09:30:58.487Z,8.73
2023-04-18T09:33:33.147Z,8.57
2023-04-18T09:36:24.169Z,8.70
2023-04-18T09:38:55.547Z,8.43
2023-04-18T09:41:23.690Z,8.33
2023-04-18T09:43:50.613Z,8.13
2023-04-18T09:46:21.899Z,8.20
2023-04-18T09:48:48.727Z,7.27
2023-04-18T09:51:16.858Z,7.63
2023-04-18T09:53:45.160Z,7.27
2023-04-18T09:56:26.329Z,8.70
2023-04-18T09:58:57.416Z,7.53
2023-04-18T10:01:28.718Z,7.57
2023-04-18T10:03:57.399Z,6.93
2023-04-18T10:06:27.512Z,5.83
2023-04-18T10:08:55.259Z,6.70
2023-04-18T10:11:23.906Z,7.40
2023-04-18T10:13:56.011Z,7.13
2023-04-18T10:16:23.484Z,6.83
2023-04-18T10:18:51.459Z,6.93
2023-04-18T10:21:18.250Z,6.30
2023-04-18T10:23:48.926Z,6.33
2023-04-18T10:26:16.631Z,6.33
2023-04-18T10:28:57.390Z,6.10
2023-04-18T10:31:26.148Z,6.23
2023-04-18T10:34:07.025Z,6.50
2023-04-18T10:36:33.896Z,6.13
2023-04-18T10:39:30.123Z,6.73
2023-04-18T10:41:56.838Z,5.63
2023-04-18T10:44:24.016Z,6.00
2023-04-18T10:46:51.268Z,6.57
2023-04-18T10:49:23.264Z,6.10
2023-04-18T10:51:56.287Z,6.33
2023-04-18T10:54:30.875Z,5.93
2023-04-18T10:57:03.249Z,6.23
2023-04-18T10:59:31.987Z,6.97
2023-04-18T11:02:29.958Z,6.07
2023-04-18T11:04:59.819Z,5.47
2023-04-18T11:07:49.101Z,5.87
2023-04-18T11:10:24.698Z,4.87
2023-04-18T11:12:52.373Z,5.97
2023-04-18T11:15:23.950Z,4.97
2023-04-18T11:18:02.532Z,5.17
2023-04-18T11:20:39.850Z,4.40
2023-04-18T11:23:25.079Z,4.80
2023-04-18T11:25:56.535Z,5.20
2023-04-18T11:28:26.509Z,5.20
2023-04-18T11:30:59.707Z,5.07
2023-04-18T11:33:28.578Z,5.10
2023-04-18T11:35:58.901Z,5.37
2023-04-18T11:38:30.980Z,4.73
2023-04-18T11:40:57.841Z,5.20
2023-04-18T11:43:25.673Z,5.10
2023-04-18T11:45:59.211Z,4.67
2023-04-18T11:48:43.645Z,5.07
2023-04-18T11:51:38.876Z,5.33
2023-04-18T11:54:06.085Z,5.07
2023-04-18T11:56:35.315Z,5.20
2023-04-18T11:59:10.153Z,4.93
2023-04-18T12:01:36.975Z,5.77
2023-04-18T12:04:06.017Z,6.00
2023-04-18T12:06:53.934Z,6.63
2023-04-18T12:09:22.695Z,6.13
2023-04-18T12:12:00.313Z,5.83
2023-04-18T12:14:28.469Z,6.40
2023-04-18T12:16:55.247Z,6.63
2023-04-18T12:19:29.878Z,5.67
2023-04-18T12:22:01.282Z,5.63
2023-04-18T12:24:32.415Z,6.67
2023-04-18T12:26:59.772Z,6.27
2023-04-18T12:29:28.240Z,6.20
2023-04-18T12:31:55.785Z,6.20
2023-04-18T12:34:22.654Z,5.03
2023-04-18T12:36:49.493Z,6.60
2023-04-18T12:39:16.325Z,5.70
2023-04-18T12:41:44.063Z,6.07
2023-04-18T12:44:10.803Z,5.80
2023-04-18T12:46:37.632Z,5.43
2023-04-18T12:49:04.492Z,5.60
2023-04-18T12:51:31.670Z,5.27
2023-04-18T12:53:58.550Z,5.70
2023-04-18T12:56:25.518Z,5.60
2023-04-18T12:58:52.989Z,4.73
2023-04-18T13:01:20.133Z,5.40
2023-04-18T13:03:53.408Z,5.27
2023-04-18T13:06:26.941Z,5.37
2023-04-18T13:08:53.887Z,5.17
2023-04-18T13:11:22.750Z,5.33
2023-04-18T13:13:52.023Z,5.90
2023-04-18T13:16:18.882Z,5.37
2023-04-18T13:18:45.646Z,5.57
2023-04-18T13:21:12.506Z,5.80
2023-04-18T13:23:39.233Z,5.67
2023-04-18T13:26:06.074Z,6.03
2023-04-18T13:28:32.917Z,6.07
2023-04-18T13:30:59.908Z,6.47
2023-04-18T13:33:26.678Z,6.20
2023-04-18T13:35:53.494Z,5.50
2023-04-18T13:38:20.469Z,5.57
2023-04-18T13:40:47.195Z,5.23
2023-04-18T13:43:15.616Z,5.37
2023-04-18T13:45:42.381Z,6.17
2023-04-18T13:48:09.235Z,6.63
2023-04-18T13:50:36.111Z,5.93
2023-04-18T13:53:02.876Z,6.40
2023-04-18T13:55:29.611Z,6.60
2023-04-18T13:57:56.390Z,7.33
2023-04-18T14:00:23.330Z,6.30
2023-04-18T14:02:50.715Z,6.43
2023-04-18T14:05:17.851Z,6.27
2023-04-18T14:07:44.705Z,5.50
2023-04-18T14:10:11.601Z,6.73
2023-04-18T14:12:38.343Z,5.90
2023-04-18T14:15:05.712Z,6.30
2023-04-18T14:17:32.458Z,6.87
2023-04-18T14:20:09.004Z,6.37
2023-04-18T14:22:36.213Z,6.30
2023-04-18T14:25:03.063Z,6.37
2023-04-18T14:27:29.922Z,6.47
2023-04-18T14:29:56.849Z,7.40
2023-04-18T14:32:23.763Z,6.47
2023-04-18T14:34:50.622Z,6.53
2023-04-18T14:37:17.837Z,7.20
2023-04-18T14:39:44.778Z,6.53
2023-04-18T14:42:11.597Z,6.57
2023-04-18T14:44:38.315Z,6.63
2023-04-18T14:47:05.174Z,6.20
2023-04-18T14:49:32.242Z,5.47
2023-04-18T14:51:59.174Z,6.40
2023-04-18T14:54:26.091Z,6.03
2023-04-18T14:56:53.019Z,6.10
2023-04-18T14:59:20.174Z,6.60
2023-04-18T15:01:47.161Z,7.33
2023-04-18T15:04:14.345Z,5.90
2023-04-18T15:06:41.659Z,6.77
2023-04-18T15:09:08.544Z,6.20
2023-04-18T15:11:35.297Z,5.80
2023-04-18T15:14:02.122Z,19.33
2023-04-18T15:16:28.932Z,5.93
2023-04-18T15:18:55.945Z,5.90
2023-04-18T15:21:22.870Z,6.00
2023-04-18T15:23:52.441Z,6.20
2023-04-18T15:26:19.417Z,6.10
2023-04-18T15:28:46.804Z,6.13
2023-04-18T15:31:14.567Z,6.70
2023-04-18T15:33:41.372Z,6.17
2023-04-18T15:36:09.057Z,6.57
2023-04-18T15:38:35.983Z,7.03
2023-04-18T15:41:02.783Z,6.10
2023-04-18T15:43:29.524Z,6.63
2023-04-18T15:45:56.351Z,6.70
2023-04-18T15:48:23.415Z,6.83
2023-04-18T15:50:53.473Z,7.00
2023-04-18T15:53:20.294Z,6.53
2023-04-18T15:55:47.140Z,6.20
2023-04-18T15:58:13.877Z,6.63
2023-04-18T16:00:40.576Z,6.87
2023-04-18T16:03:10.089Z,6.03
2023-04-18T16:05:37.028Z,5.93
2023-04-18T16:08:03.854Z,6.33
2023-04-18T16:10:31.133Z,6.67
2023-04-18T16:13:00.793Z,6.70
2023-04-18T16:15:27.576Z,6.90
2023-04-18T16:17:54.756Z,6.60
2023-04-18T16:20:21.625Z,6.10
2023-04-18T16:22:48.371Z,6.33
2023-04-18T16:25:15.169Z,6.10
2023-04-18T16:27:42.800Z,6.47
2023-04-18T16:30:12.968Z,7.07
2023-04-18T16:32:39.749Z,6.30
2023-04-18T16:35:10.332Z,7.37
2023-04-18T16:37:41.074Z,6.10
2023-04-18T16:40:10.304Z,5.87
2023-04-18T16:42:44.545Z,5.93
2023-04-18T16:45:11.404Z,6.07
2023-04-18T16:47:38.245Z,6.43
2023-04-18T16:50:06.080Z,5.33
2023-04-18T16:52:32.904Z,5.97
2023-04-18T16:54:59.634Z,4.77
2023-04-18T16:57:26.566Z,5.70
2023-04-18T16:59:53.378Z,5.30
2023-04-18T17:02:20.310Z,5.70
2023-04-18T17:04:47.662Z,5.43
2023-04-18T17:07:14.440Z,5.23
2023-04-18T17:09:41.589Z,4.80
2023-04-18T17:12:08.410Z,5.20
2023-04-18T17:14:37.219Z,5.47
2023-04-18T17:17:04.429Z,5.33
2023-04-18T17:19:32.726Z,4.73
2023-04-18T17:21:59.418Z,5.37
2023-04-18T17:24:26.140Z,4.27
2023-04-18T17:26:53.162Z,5.20
2023-04-18T17:29:20.168Z,5.10
2023-04-18T17:31:46.912Z,4.80
2023-04-18T17:34:13.721Z,4.77
2023-04-18T17:36:40.722Z,5.90
2023-04-18T17:39:07.589Z,5.63
2023-04-18T17:41:38.953Z,5.40
2023-04-18T17:44:07.743Z,4.93
2023-04-18T17:46:34.608Z,5.47
2023-04-18T17:49:01.480Z,5.23
2023-04-18T17:51:28.224Z,5.80
2023-04-18T17:53:55.326Z,5.47
2023-04-18T17:56:22.681Z,5.63
2023-04-18T17:58:49.750Z,6.20
2023-04-18T18:01:18.889Z,6.13
2023-04-18T18:03:47.275Z,5.83
2023-04-18T18:06:15.184Z,5.80
2023-04-18T18:08:43.781Z,5.27
2023-04-18T18:11:11.108Z,5.50
2023-04-18T18:13:39.259Z,5.73
2023-04-18T18:16:07.204Z,5.83
2023-04-18T18:18:34.012Z,5.67
2023-04-18T18:21:00.820Z,5.73
2023-04-18T18:23:27.672Z,5.70
2023-04-18T18:25:54.495Z,5.47
2023-04-18T18:28:21.665Z,5.17
2023-04-18T18:30:48.488Z,5.17
2023-04-18T18:33:15.326Z,5.63
2023-04-18T18:35:42.038Z,5.67
2023-04-18T18:38:08.845Z,5.30
2023-04-18T18:40:38.377Z,5.27
2023-04-18T18:43:05.099Z,5.70
2023-04-18T18:45:31.929Z,5.60
2023-04-18T18:47:58.701Z,5.40
2023-04-18T18:50:25.470Z,5.77
2023-04-18T18:52:52.244Z,5.67
2023-04-18T18:55:19.165Z,5.07
2023-04-18T18:57:46.111Z,5.03
2023-04-18T19:00:13.613Z,5.73
2023-04-18T19:02:40.606Z,5.23
2023-04-18T19:05:07.720Z,5.53
2023-04-18T19:07:34.457Z,5.63
2023-04-18T19:10:01.921Z,5.30
2023-04-18T19:12:29.430Z,5.37
2023-04-18T19:14:56.294Z,5.37
2023-04-18T19:17:24.927Z,5.03
2023-04-18T19:19:53.239Z,5.43
2023-04-18T19:22:19.982Z,4.83
2023-04-18T19:24:47.159Z,5.30
2023-04-18T19:27:13.857Z,5.43
2023-04-18T19:29:41.118Z,4.90
2023-04-18T19:32:07.883Z,5.47
2023-04-18T19:34:34.642Z,4.90
2023-04-18T19:37:01.533Z,4.47
2023-04-18T19:39:28.578Z,4.90
2023-04-18T19:41:55.358Z,5.30
2023-04-18T19:44:22.119Z,5.77
2023-04-18T19:46:48.875Z,5.70
2023-04-18T19:49:16.096Z,5.43
2023-04-18T19:51:42.962Z,5.33
2023-04-18T19:54:09.729Z,5.33
2023-04-18T19:56:36.544Z,5.50
2023-04-18T19:59:06.113Z,5.37
2023-04-18T20:01:32.956Z,6.53
2023-04-18T20:04:00.905Z,5.10
2023-04-18T20:06:28.194Z,5.00
2023-04-18T20:08:55.387Z,4.97
2023-04-18T20:11:22.414Z,4.97
2023-04-18T20:13:49.565Z,4.80
2023-04-18T20:16:17.071Z,4.87
2023-04-18T20:18:44.516Z,4.63
2023-04-18T20:21:11.502Z,5.30
2023-04-18T20:23:39.601Z,5.23
2023-04-18T20:26:06.831Z,5.50
2023-04-18T20:28:33.810Z,4.67
2023-04-18T20:31:01.652Z,5.43
2023-04-18T20:33:28.364Z,5.23
2023-04-18T20:35:55.105Z,4.90
2023-04-18T20:38:26.152Z,4.77
2023-04-18T20:40:54.415Z,5.13
2023-04-18T20:43:21.580Z,4.50
2023-04-18T20:45:51.209Z,5.10
2023-04-18T20:48:18.759Z,5.70
2023-04-18T20:50:51.316Z,5.37
2023-04-18T20:53:22.549Z,5.60
2023-04-18T20:55:49.577Z,5.53
2023-04-18T20:58:16.357Z,5.87
2023-04-18T21:00:44.769Z,5.27
2023-04-18T21:03:15.359Z,6.30
2023-04-18T21:05:43.375Z,6.17
2023-04-18T21:08:11.244Z,6.23
2023-04-18T21:10:38.068Z,5.90
2023-04-18T21:13:04.795Z,6.53
2023-04-18T21:15:31.554Z,6.60
2023-04-18T21:17:58.273Z,5.97
2023-04-18T21:20:25.120Z,6.87
2023-04-18T21:22:51.822Z,6.73
2023-04-18T21:25:20.584Z,5.83
2023-04-18T21:27:47.359Z,6.20
2023-04-18T21:30:14.118Z,5.87
2023-04-18T21:32:40.827Z,5.77
2023-04-18T21:35:07.790Z,6.67
2023-04-18T21:37:34.546Z,6.70
2023-04-18T21:40:01.778Z,6.27
2023-04-18T21:42:28.506Z,7.20
2023-04-18T21:44:55.217Z,7.73
2023-04-18T21:47:22.275Z,8.27
2023-04-18T21:49:49.517Z,8.17
2023-04-18T21:52:16.226Z,8.80
2023-04-18T21:54:42.944Z,7.80
2023-04-18T21:57:09.653Z,8.93
2023-04-18T21:59:36.381Z,7.67
2023-04-18T22:02:03.216Z,8.47
2023-04-18T22:04:30.008Z,7.53
2023-04-18T22:06:57.063Z,7.73
2023-04-18T22:09:23.772Z,7.50
2023-04-18T22:11:57.039Z,7.60
2023-04-18T22:14:25.004Z,7.57
2023-04-18T22:16:51.927Z,7.60
2023-04-18T22:19:19.411Z,7.80
2023-04-18T22:21:46.834Z,7.50
2023-04-18T22:24:13.694Z,7.83
2023-04-18T22:26:41.046Z,7.50
2023-04-18T22:29:07.801Z,7.77
2023-04-18T22:31:34.553Z,7.50
2023-04-18T22:34:01.300Z,7.73
2023-04-18T22:36:28.067Z,8.07
2023-04-18T22:38:54.905Z,7.63
2023-04-18T22:41:21.715Z,8.30
2023-04-18T22:43:48.415Z,8.30
2023-04-18T22:46:15.301Z,8.07
2023-04-18T22:48:42.437Z,8.43
2023-04-18T22:51:09.132Z,8.60
2023-04-18T22:53:36.024Z,8.67
2023-04-18T22:56:02.726Z,8.70
2023-04-18T22:58:29.916Z,9.43
2023-04-18T23:00:56.625Z,8.30
2023-04-18T23:03:23.589Z,8.63
2023-04-18T23:05:50.482Z,9.07
2023-04-18T23:08:18.928Z,7.80
2023-04-18T23:10:45.665Z,9.17
2023-04-18T23:13:14.519Z,8.93
2023-04-18T23:15:41.314Z,8.77
2023-04-18T23:18:08.430Z,9.03
2023-04-18T23:20:36.503Z,8.50
2023-04-18T23:23:03.298Z,8.30
2023-04-18T23:25:33.402Z,8.80
2023-04-18T23:28:00.397Z,8.90
2023-04-18T23:30:27.126Z,9.00
2023-04-18T23:32:54.125Z,9.10
2023-04-18T23:35:20.920Z,8.83
2023-04-18T23:37:47.710Z,9.20
2023-04-18T23:40:14.795Z,9.17
2023-04-18T23:42:42.262Z,9.13
2023-04-18T23:45:09.235Z,8.60
2023-04-18T23:47:36.035Z,8.87
2023-04-18T23:50:02.846Z,8.50
2023-04-18T23:52:29.613Z,9.80
2023-04-18T23:55:00.772Z,10.00
2023-04-18T23:57:27.570Z,9.07
2023-04-18T23:59:54.236Z,9.63
